sensor_id;sensor_type;location;lat;lon;timestamp;temperature;humidity
6114;DHT22;3087;48.392;10.836;2022-12-18T00:01:40;-1.70;99.90
6114;DHT22;3087;48.392;10.836;2022-12-18T00:04:08;-1.80;99.90
6114;DHT22;3087;48.392;10.836;2022-12-18T00:06:40;-1.80;99.90
6114;DHT22;3087;48.392;10.836;2022-12-18T00:09:05;-1.90;99.90
6114;DHT22;3087;48.392;10.836;2022-12-18T00:11:31;-2.00;99.90
6114;DHT22;3087;48.392;10.836;2022-12-18T00:13:58;-2.10;99.90
6114;DHT22;3087;48.392;10.836;2022-12-18T00:16:25;-2.10;99.90
6114;DHT22;3087;48.392;10.836;2022-12-18T00:18:53;-2.10;99.90
6114;DHT22;3087;48.392;10.836;2022-12-18T00:21:20;-2.10;99.90
6114;DHT22;3087;48.392;10.836;2022-12-18T00:23:47;-2.00;99.90
6114;DHT22;3087;48.392;10.836;2022-12-18T00:28:43;-1.80;99.90
6114;DHT22;3087;48.392;10.836;2022-12-18T00:31:18;-1.00;99.90
6114;DHT22;3087;48.392;10.836;2022-12-18T00:33:44;-1.50;99.90
6114;DHT22;3087;48.392;10.836;2022-12-18T00:36:12;-1.40;99.90
6114;DHT22;3087;48.392;10.836;2022-12-18T00:38:39;-1.50;99.90
6114;DHT22;3087;48.392;10.836;2022-12-18T00:41:06;-1.60;99.90
6114;DHT22;3087;48.392;10.836;2022-12-18T00:43:35;-1.60;99.90
6114;DHT22;3087;48.392;10.836;2022-12-18T00:46:01;-1.70;99.90
6114;DHT22;3087;48.392;10.836;2022-12-18T00:48:26;-1.70;99.90
6114;DHT22;3087;48.392;10.836;2022-12-18T00:50:52;-1.60;99.90
6114;DHT22;3087;48.392;10.836;2022-12-18T00:53:18;-1.60;99.90
6114;DHT22;3087;48.392;10.836;2022-12-18T00:55:45;-1.70;99.90
6114;DHT22;3087;48.392;10.836;2022-12-18T00:58:12;-1.80;99.90
6114;DHT22;3087;48.392;10.836;2022-12-18T01:00:37;-1.60;99.90
6114;DHT22;3087;48.392;10.836;2022-12-18T01:03:03;-1.90;99.90
6114;DHT22;3087;48.392;10.836;2022-12-18T01:05:29;-2.10;99.90
6114;DHT22;3087;48.392;10.836;2022-12-18T01:07:56;-2.10;99.90
6114;DHT22;3087;48.392;10.836;2022-12-18T01:10:22;-2.20;99.90
6114;DHT22;3087;48.392;10.836;2022-12-18T01:12:47;-2.30;99.90
6114;DHT22;3087;48.392;10.836;2022-12-18T01:15:14;-2.20;99.90
6114;DHT22;3087;48.392;10.836;2022-12-18T01:17:40;-2.10;99.90
6114;DHT22;3087;48.392;10.836;2022-12-18T01:20:06;-2.10;99.90
6114;DHT22;3087;48.392;10.836;2022-12-18T01:22:35;-2.20;99.90
6114;DHT22;3087;48.392;10.836;2022-12-18T01:25:02;-2.20;99.90
6114;DHT22;3087;48.392;10.836;2022-12-18T01:27:27;-2.30;99.90
6114;DHT22;3087;48.392;10.836;2022-12-18T01:29:53;-2.50;99.90
6114;DHT22;3087;48.392;10.836;2022-12-18T01:32:19;-2.50;99.90
6114;DHT22;3087;48.392;10.836;2022-12-18T01:34:45;-2.40;99.90
6114;DHT22;3087;48.392;10.836;2022-12-18T01:37:10;-2.20;99.90
6114;DHT22;3087;48.392;10.836;2022-12-18T01:39:36;-2.00;99.90
6114;DHT22;3087;48.392;10.836;2022-12-18T01:42:11;-1.90;99.90
6114;DHT22;3087;48.392;10.836;2022-12-18T01:45:00;-1.50;99.90
6114;DHT22;3087;48.392;10.836;2022-12-18T01:47:30;-1.70;99.90
6114;DHT22;3087;48.392;10.836;2022-12-18T01:49:58;-1.70;99.90
6114;DHT22;3087;48.392;10.836;2022-12-18T01:52:28;-1.90;99.90
6114;DHT22;3087;48.392;10.836;2022-12-18T01:54:55;-2.00;99.90
6114;DHT22;3087;48.392;10.836;2022-12-18T01:57:21;-2.00;99.90
6114;DHT22;3087;48.392;10.836;2022-12-18T01:59:51;-2.00;99.90
6114;DHT22;3087;48.392;10.836;2022-12-18T02:02:18;-0.60;99.90
6114;DHT22;3087;48.392;10.836;2022-12-18T02:04:45;-2.20;99.90
6114;DHT22;3087;48.392;10.836;2022-12-18T02:07:29;-2.20;99.90
6114;DHT22;3087;48.392;10.836;2022-12-18T02:13:10;-2.40;99.90
6114;DHT22;3087;48.392;10.836;2022-12-18T02:18:36;-2.90;99.90
6114;DHT22;3087;48.392;10.836;2022-12-18T02:21:31;-2.80;99.90
6114;DHT22;3087;48.392;10.836;2022-12-18T02:24:11;-2.90;99.90
6114;DHT22;3087;48.392;10.836;2022-12-18T02:26:46;-2.90;99.90
6114;DHT22;3087;48.392;10.836;2022-12-18T02:29:21;-3.00;99.90
6114;DHT22;3087;48.392;10.836;2022-12-18T02:31:56;-3.00;99.90
6114;DHT22;3087;48.392;10.836;2022-12-18T02:34:27;-3.00;99.90
6114;DHT22;3087;48.392;10.836;2022-12-18T02:36:55;-3.00;99.90
6114;DHT22;3087;48.392;10.836;2022-12-18T02:39:25;-2.70;99.90
6114;DHT22;3087;48.392;10.836;2022-12-18T02:41:52;-2.90;99.90
6114;DHT22;3087;48.392;10.836;2022-12-18T02:44:17;-3.00;99.90
6114;DHT22;3087;48.392;10.836;2022-12-18T02:46:46;-3.00;99.90
6114;DHT22;3087;48.392;10.836;2022-12-18T02:55:13;-2.80;99.90
6114;DHT22;3087;48.392;10.836;2022-12-18T02:57:54;-2.90;99.90
6114;DHT22;3087;48.392;10.836;2022-12-18T03:00:40;-2.80;99.90
6114;DHT22;3087;48.392;10.836;2022-12-18T03:03:19;-2.90;99.90
6114;DHT22;3087;48.392;10.836;2022-12-18T03:05:57;-3.00;99.90
6114;DHT22;3087;48.392;10.836;2022-12-18T03:08:37;-3.10;99.90
6114;DHT22;3087;48.392;10.836;2022-12-18T03:11:07;-3.00;99.90
6114;DHT22;3087;48.392;10.836;2022-12-18T03:13:50;-3.00;99.90
6114;DHT22;3087;48.392;10.836;2022-12-18T03:16:24;-3.00;99.90
6114;DHT22;3087;48.392;10.836;2022-12-18T03:19:01;-3.00;99.90
6114;DHT22;3087;48.392;10.836;2022-12-18T03:21:32;-3.10;99.90
6114;DHT22;3087;48.392;10.836;2022-12-18T03:24:00;-3.10;99.90
6114;DHT22;3087;48.392;10.836;2022-12-18T03:26:28;-3.10;99.90
6114;DHT22;3087;48.392;10.836;2022-12-18T03:28:57;-2.90;99.90
6114;DHT22;3087;48.392;10.836;2022-12-18T03:31:26;-2.90;99.90
6114;DHT22;3087;48.392;10.836;2022-12-18T03:33:55;-2.90;99.90
6114;DHT22;3087;48.392;10.836;2022-12-18T03:36:23;-2.90;99.90
6114;DHT22;3087;48.392;10.836;2022-12-18T03:38:49;-3.00;99.90
6114;DHT22;3087;48.392;10.836;2022-12-18T03:41:31;-2.90;99.90
6114;DHT22;3087;48.392;10.836;2022-12-18T03:44:03;-2.80;99.90
6114;DHT22;3087;48.392;10.836;2022-12-18T03:52:41;-2.60;99.90
6114;DHT22;3087;48.392;10.836;2022-12-18T03:55:09;-2.50;99.90
6114;DHT22;3087;48.392;10.836;2022-12-18T03:57:35;-2.60;99.90
6114;DHT22;3087;48.392;10.836;2022-12-18T04:00:09;-2.70;99.90
6114;DHT22;3087;48.392;10.836;2022-12-18T04:02:38;-2.70;99.90
6114;DHT22;3087;48.392;10.836;2022-12-18T04:05:06;-2.70;99.90
6114;DHT22;3087;48.392;10.836;2022-12-18T04:07:33;-2.70;99.90
6114;DHT22;3087;48.392;10.836;2022-12-18T04:10:01;-2.70;99.90
6114;DHT22;3087;48.392;10.836;2022-12-18T04:12:28;-2.70;99.90
6114;DHT22;3087;48.392;10.836;2022-12-18T04:14:54;-2.60;99.90
6114;DHT22;3087;48.392;10.836;2022-12-18T04:17:20;-2.80;99.90
6114;DHT22;3087;48.392;10.836;2022-12-18T04:19:46;-2.80;99.90
6114;DHT22;3087;48.392;10.836;2022-12-18T04:22:12;-3.00;99.90
6114;DHT22;3087;48.392;10.836;2022-12-18T04:24:37;-3.00;99.90
6114;DHT22;3087;48.392;10.836;2022-12-18T04:27:03;-3.10;99.90
6114;DHT22;3087;48.392;10.836;2022-12-18T04:29:29;-3.10;99.90
6114;DHT22;3087;48.392;10.836;2022-12-18T04:31:55;-3.10;99.90
6114;DHT22;3087;48.392;10.836;2022-12-18T04:34:21;-3.00;99.90
6114;DHT22;3087;48.392;10.836;2022-12-18T04:36:47;-3.00;99.90
6114;DHT22;3087;48.392;10.836;2022-12-18T04:39:13;-3.00;99.90
6114;DHT22;3087;48.392;10.836;2022-12-18T04:41:39;-3.00;99.90
6114;DHT22;3087;48.392;10.836;2022-12-18T04:44:05;-3.00;99.90
6114;DHT22;3087;48.392;10.836;2022-12-18T04:46:30;-3.00;99.90
6114;DHT22;3087;48.392;10.836;2022-12-18T04:48:56;-3.10;99.90
6114;DHT22;3087;48.392;10.836;2022-12-18T04:51:22;-3.00;99.90
6114;DHT22;3087;48.392;10.836;2022-12-18T04:53:47;-2.90;99.90
6114;DHT22;3087;48.392;10.836;2022-12-18T04:56:14;-2.80;99.90
6114;DHT22;3087;48.392;10.836;2022-12-18T04:58:42;-2.80;99.90
6114;DHT22;3087;48.392;10.836;2022-12-18T05:01:09;-2.80;99.90
6114;DHT22;3087;48.392;10.836;2022-12-18T05:03:36;-2.80;99.90
6114;DHT22;3087;48.392;10.836;2022-12-18T05:06:02;-2.90;99.90
6114;DHT22;3087;48.392;10.836;2022-12-18T05:08:27;-2.80;99.90
6114;DHT22;3087;48.392;10.836;2022-12-18T05:13:25;-2.70;99.90
6114;DHT22;3087;48.392;10.836;2022-12-18T05:15:52;-2.70;99.90
6114;DHT22;3087;48.392;10.836;2022-12-18T05:18:18;-2.70;99.90
6114;DHT22;3087;48.392;10.836;2022-12-18T05:20:43;-2.80;99.90
6114;DHT22;3087;48.392;10.836;2022-12-18T05:23:09;-2.80;99.90
6114;DHT22;3087;48.392;10.836;2022-12-18T05:25:35;-2.80;99.90
6114;DHT22;3087;48.392;10.836;2022-12-18T05:28:00;-2.80;99.90
6114;DHT22;3087;48.392;10.836;2022-12-18T05:30:26;-2.90;99.90
6114;DHT22;3087;48.392;10.836;2022-12-18T05:32:52;-2.90;99.90
6114;DHT22;3087;48.392;10.836;2022-12-18T05:35:18;-3.00;99.90
6114;DHT22;3087;48.392;10.836;2022-12-18T05:37:44;-3.00;99.90
6114;DHT22;3087;48.392;10.836;2022-12-18T05:40:10;-2.90;99.90
6114;DHT22;3087;48.392;10.836;2022-12-18T05:42:36;-2.80;99.90
6114;DHT22;3087;48.392;10.836;2022-12-18T05:45:02;-3.00;99.90
6114;DHT22;3087;48.392;10.836;2022-12-18T05:47:28;-3.00;99.90
6114;DHT22;3087;48.392;10.836;2022-12-18T05:49:54;-3.10;99.90
6114;DHT22;3087;48.392;10.836;2022-12-18T05:52:20;-3.10;99.90
6114;DHT22;3087;48.392;10.836;2022-12-18T05:54:46;-3.00;99.90
6114;DHT22;3087;48.392;10.836;2022-12-18T05:57:11;-3.10;99.90
6114;DHT22;3087;48.392;10.836;2022-12-18T05:59:37;-3.00;99.90
6114;DHT22;3087;48.392;10.836;2022-12-18T06:02:02;-2.90;99.90
6114;DHT22;3087;48.392;10.836;2022-12-18T06:04:31;-2.80;99.90
6114;DHT22;3087;48.392;10.836;2022-12-18T06:06:57;-2.80;99.90
6114;DHT22;3087;48.392;10.836;2022-12-18T06:09:23;-2.90;99.90
6114;DHT22;3087;48.392;10.836;2022-12-18T06:11:48;-3.00;99.90
6114;DHT22;3087;48.392;10.836;2022-12-18T06:14:16;-3.10;99.90
6114;DHT22;3087;48.392;10.836;2022-12-18T06:16:42;-3.20;99.90
6114;DHT22;3087;48.392;10.836;2022-12-18T06:19:12;-3.20;99.90
6114;DHT22;3087;48.392;10.836;2022-12-18T06:21:38;-3.30;99.90
6114;DHT22;3087;48.392;10.836;2022-12-18T06:24:04;-3.30;99.90
6114;DHT22;3087;48.392;10.836;2022-12-18T06:26:30;-3.20;99.90
6114;DHT22;3087;48.392;10.836;2022-12-18T06:28:56;-3.10;99.90
6114;DHT22;3087;48.392;10.836;2022-12-18T06:31:21;-3.00;99.90
6114;DHT22;3087;48.392;10.836;2022-12-18T06:33:47;-3.10;99.90
6114;DHT22;3087;48.392;10.836;2022-12-18T06:36:13;-3.10;99.90
6114;DHT22;3087;48.392;10.836;2022-12-18T06:38:41;-3.10;99.90
6114;DHT22;3087;48.392;10.836;2022-12-18T06:41:09;-3.10;99.90
6114;DHT22;3087;48.392;10.836;2022-12-18T06:43:35;-3.00;99.90
6114;DHT22;3087;48.392;10.836;2022-12-18T06:46:01;-2.90;99.90
6114;DHT22;3087;48.392;10.836;2022-12-18T06:48:27;-2.90;99.90
6114;DHT22;3087;48.392;10.836;2022-12-18T06:50:53;-2.90;99.90
6114;DHT22;3087;48.392;10.836;2022-12-18T06:53:19;-3.00;99.90
6114;DHT22;3087;48.392;10.836;2022-12-18T06:55:44;-3.00;99.90
6114;DHT22;3087;48.392;10.836;2022-12-18T06:58:10;-2.90;99.90
6114;DHT22;3087;48.392;10.836;2022-12-18T07:00:35;-2.80;99.90
6114;DHT22;3087;48.392;10.836;2022-12-18T07:03:01;-2.80;99.90
6114;DHT22;3087;48.392;10.836;2022-12-18T07:05:27;-2.80;99.90
6114;DHT22;3087;48.392;10.836;2022-12-18T07:07:52;-2.80;99.90
6114;DHT22;3087;48.392;10.836;2022-12-18T07:10:18;-2.80;99.90
6114;DHT22;3087;48.392;10.836;2022-12-18T07:12:44;-2.20;99.90
6114;DHT22;3087;48.392;10.836;2022-12-18T07:15:10;-2.90;99.90
6114;DHT22;3087;48.392;10.836;2022-12-18T07:17:35;-3.00;99.90
6114;DHT22;3087;48.392;10.836;2022-12-18T07:20:01;-3.00;99.90
6114;DHT22;3087;48.392;10.836;2022-12-18T07:22:27;-3.00;99.90
6114;DHT22;3087;48.392;10.836;2022-12-18T07:24:52;-3.00;99.90
6114;DHT22;3087;48.392;10.836;2022-12-18T07:27:18;-3.00;99.90
6114;DHT22;3087;48.392;10.836;2022-12-18T07:29:44;-3.00;99.90
6114;DHT22;3087;48.392;10.836;2022-12-18T07:32:09;-3.00;99.90
6114;DHT22;3087;48.392;10.836;2022-12-18T07:34:35;-3.10;99.90
6114;DHT22;3087;48.392;10.836;2022-12-18T07:37:00;-3.10;99.90
6114;DHT22;3087;48.392;10.836;2022-12-18T07:39:26;-3.10;99.90
6114;DHT22;3087;48.392;10.836;2022-12-18T07:41:52;-3.00;99.90
6114;DHT22;3087;48.392;10.836;2022-12-18T07:44:36;-2.90;99.90
6114;DHT22;3087;48.392;10.836;2022-12-18T07:47:02;-2.90;99.90
6114;DHT22;3087;48.392;10.836;2022-12-18T07:49:28;-2.90;99.90
6114;DHT22;3087;48.392;10.836;2022-12-18T07:51:55;-2.90;99.90
6114;DHT22;3087;48.392;10.836;2022-12-18T07:54:22;-2.90;99.90
6114;DHT22;3087;48.392;10.836;2022-12-18T07:56:48;-2.90;99.90
6114;DHT22;3087;48.392;10.836;2022-12-18T07:59:14;-2.90;99.90
6114;DHT22;3087;48.392;10.836;2022-12-18T08:01:39;-2.90;99.90
6114;DHT22;3087;48.392;10.836;2022-12-18T08:04:05;-3.00;99.90
6114;DHT22;3087;48.392;10.836;2022-12-18T08:06:30;-2.90;99.90
6114;DHT22;3087;48.392;10.836;2022-12-18T08:08:56;-2.90;99.90
6114;DHT22;3087;48.392;10.836;2022-12-18T08:11:24;-2.80;99.90
6114;DHT22;3087;48.392;10.836;2022-12-18T08:13:50;-2.80;99.90
6114;DHT22;3087;48.392;10.836;2022-12-18T08:16:15;-2.70;99.90
6114;DHT22;3087;48.392;10.836;2022-12-18T08:18:41;-2.70;99.90
6114;DHT22;3087;48.392;10.836;2022-12-18T08:21:19;-2.70;99.90
6114;DHT22;3087;48.392;10.836;2022-12-18T08:23:46;-2.70;99.90
6114;DHT22;3087;48.392;10.836;2022-12-18T08:26:12;-2.70;99.90
6114;DHT22;3087;48.392;10.836;2022-12-18T08:28:38;-2.80;99.90
6114;DHT22;3087;48.392;10.836;2022-12-18T08:31:04;-2.90;99.90
6114;DHT22;3087;48.392;10.836;2022-12-18T08:33:30;-2.90;99.90
6114;DHT22;3087;48.392;10.836;2022-12-18T08:35:55;-2.90;99.90
6114;DHT22;3087;48.392;10.836;2022-12-18T08:38:21;-2.80;99.90
6114;DHT22;3087;48.392;10.836;2022-12-18T08:40:48;-2.80;99.90
6114;DHT22;3087;48.392;10.836;2022-12-18T08:43:13;-2.60;99.90
6114;DHT22;3087;48.392;10.836;2022-12-18T08:45:57;-2.60;99.90
6114;DHT22;3087;48.392;10.836;2022-12-18T08:48:23;-2.50;99.90
6114;DHT22;3087;48.392;10.836;2022-12-18T08:50:59;-2.40;99.90
6114;DHT22;3087;48.392;10.836;2022-12-18T08:53:25;-2.40;99.90
6114;DHT22;3087;48.392;10.836;2022-12-18T08:55:51;-2.40;99.90
6114;DHT22;3087;48.392;10.836;2022-12-18T08:58:17;-2.40;99.90
6114;DHT22;3087;48.392;10.836;2022-12-18T09:00:43;-2.50;99.90
6114;DHT22;3087;48.392;10.836;2022-12-18T09:03:16;-2.60;99.90
6114;DHT22;3087;48.392;10.836;2022-12-18T09:05:42;-2.60;99.90
6114;DHT22;3087;48.392;10.836;2022-12-18T09:08:08;-2.80;99.90
6114;DHT22;3087;48.392;10.836;2022-12-18T09:10:40;-2.90;99.90
6114;DHT22;3087;48.392;10.836;2022-12-18T09:13:06;-3.00;99.90
6114;DHT22;3087;48.392;10.836;2022-12-18T09:15:31;-3.00;99.90
6114;DHT22;3087;48.392;10.836;2022-12-18T09:17:57;-3.00;99.90
6114;DHT22;3087;48.392;10.836;2022-12-18T09:20:23;-3.00;99.90
6114;DHT22;3087;48.392;10.836;2022-12-18T09:22:48;-3.00;99.90
6114;DHT22;3087;48.392;10.836;2022-12-18T09:25:14;-3.00;99.90
6114;DHT22;3087;48.392;10.836;2022-12-18T09:27:40;-3.10;99.90
6114;DHT22;3087;48.392;10.836;2022-12-18T09:30:06;-3.10;99.90
6114;DHT22;3087;48.392;10.836;2022-12-18T09:32:32;-3.10;99.90
6114;DHT22;3087;48.392;10.836;2022-12-18T09:34:57;-3.00;99.90
6114;DHT22;3087;48.392;10.836;2022-12-18T09:37:24;-3.00;99.90
6114;DHT22;3087;48.392;10.836;2022-12-18T09:39:50;-2.90;99.90
6114;DHT22;3087;48.392;10.836;2022-12-18T09:42:22;-2.90;99.90
6114;DHT22;3087;48.392;10.836;2022-12-18T09:44:53;-2.80;99.90
6114;DHT22;3087;48.392;10.836;2022-12-18T09:49:49;-2.70;99.90
6114;DHT22;3087;48.392;10.836;2022-12-18T09:54:53;-2.60;99.90
6114;DHT22;3087;48.392;10.836;2022-12-18T09:57:23;-2.60;99.90
6114;DHT22;3087;48.392;10.836;2022-12-18T10:00:01;-2.60;99.90
6114;DHT22;3087;48.392;10.836;2022-12-18T10:02:30;-2.50;99.90
6114;DHT22;3087;48.392;10.836;2022-12-18T10:05:18;-2.40;99.90
6114;DHT22;3087;48.392;10.836;2022-12-18T10:11:01;-2.20;99.90
6114;DHT22;3087;48.392;10.836;2022-12-18T10:13:44;-2.10;99.90
6114;DHT22;3087;48.392;10.836;2022-12-18T10:16:17;-2.10;99.90
6114;DHT22;3087;48.392;10.836;2022-12-18T10:19:18;-2.20;99.90
6114;DHT22;3087;48.392;10.836;2022-12-18T10:22:09;-2.30;99.90
6114;DHT22;3087;48.392;10.836;2022-12-18T10:24:44;-2.60;99.90
6114;DHT22;3087;48.392;10.836;2022-12-18T10:27:18;-2.80;99.90
6114;DHT22;3087;48.392;10.836;2022-12-18T10:29:46;-2.80;99.90
6114;DHT22;3087;48.392;10.836;2022-12-18T10:32:18;-2.90;99.90
6114;DHT22;3087;48.392;10.836;2022-12-18T10:34:52;-2.90;99.90
6114;DHT22;3087;48.392;10.836;2022-12-18T10:37:21;-2.80;99.90
6114;DHT22;3087;48.392;10.836;2022-12-18T10:40:07;-2.80;99.90
6114;DHT22;3087;48.392;10.836;2022-12-18T10:42:33;-2.80;99.90
6114;DHT22;3087;48.392;10.836;2022-12-18T10:45:17;-2.80;99.90
6114;DHT22;3087;48.392;10.836;2022-12-18T10:47:49;-2.90;99.90
6114;DHT22;3087;48.392;10.836;2022-12-18T10:50:29;-3.00;99.90
6114;DHT22;3087;48.392;10.836;2022-12-18T10:52:59;-3.00;99.90
6114;DHT22;3087;48.392;10.836;2022-12-18T10:55:37;-2.90;99.90
6114;DHT22;3087;48.392;10.836;2022-12-18T10:58:28;-2.90;99.90
6114;DHT22;3087;48.392;10.836;2022-12-18T11:03:45;-3.10;99.90
6114;DHT22;3087;48.392;10.836;2022-12-18T11:08:39;-3.20;99.90
6114;DHT22;3087;48.392;10.836;2022-12-18T11:11:15;-3.20;99.90
6114;DHT22;3087;48.392;10.836;2022-12-18T11:14:06;-3.10;99.90
6114;DHT22;3087;48.392;10.836;2022-12-18T11:16:44;-2.90;99.90
6114;DHT22;3087;48.392;10.836;2022-12-18T11:21:42;-2.50;99.90
6114;DHT22;3087;48.392;10.836;2022-12-18T11:24:23;-2.40;99.90
6114;DHT22;3087;48.392;10.836;2022-12-18T11:26:50;-2.40;99.90
6114;DHT22;3087;48.392;10.836;2022-12-18T11:29:19;-2.40;99.90
6114;DHT22;3087;48.392;10.836;2022-12-18T11:31:48;-2.40;99.90
6114;DHT22;3087;48.392;10.836;2022-12-18T11:34:24;-2.50;99.90
6114;DHT22;3087;48.392;10.836;2022-12-18T11:36:52;-2.60;99.90
6114;DHT22;3087;48.392;10.836;2022-12-18T11:44:45;-2.50;99.90
6114;DHT22;3087;48.392;10.836;2022-12-18T11:50:00;-2.50;99.90
6114;DHT22;3087;48.392;10.836;2022-12-18T11:52:33;-2.50;99.90
6114;DHT22;3087;48.392;10.836;2022-12-18T11:55:10;-2.30;99.90
6114;DHT22;3087;48.392;10.836;2022-12-18T11:57:39;-2.10;99.90
6114;DHT22;3087;48.392;10.836;2022-12-18T12:00:21;-1.90;99.90
6114;DHT22;3087;48.392;10.836;2022-12-18T12:03:16;-2.00;99.90
6114;DHT22;3087;48.392;10.836;2022-12-18T12:19:49;-2.40;99.90
6114;DHT22;3087;48.392;10.836;2022-12-18T12:25:07;-2.10;99.90
6114;DHT22;3087;48.392;10.836;2022-12-18T12:28:03;-1.90;99.90
6114;DHT22;3087;48.392;10.836;2022-12-18T12:30:33;-1.90;99.90
6114;DHT22;3087;48.392;10.836;2022-12-18T12:40:26;-2.00;99.90
6114;DHT22;3087;48.392;10.836;2022-12-18T12:43:00;-2.00;99.90
6114;DHT22;3087;48.392;10.836;2022-12-18T12:45:46;-2.10;99.90
6114;DHT22;3087;48.392;10.836;2022-12-18T12:48:40;-2.20;99.90
6114;DHT22;3087;48.392;10.836;2022-12-18T12:51:13;-2.20;99.90
6114;DHT22;3087;48.392;10.836;2022-12-18T12:53:39;-2.30;99.90
6114;DHT22;3087;48.392;10.836;2022-12-18T12:56:09;-2.40;99.90
6114;DHT22;3087;48.392;10.836;2022-12-18T13:09:08;-2.40;99.90
6114;DHT22;3087;48.392;10.836;2022-12-18T13:14:23;-2.50;99.90
6114;DHT22;3087;48.392;10.836;2022-12-18T13:16:49;-2.60;99.90
6114;DHT22;3087;48.392;10.836;2022-12-18T13:19:26;-2.50;99.90
6114;DHT22;3087;48.392;10.836;2022-12-18T13:21:54;-2.50;99.90
6114;DHT22;3087;48.392;10.836;2022-12-18T13:24:25;-2.50;99.90
6114;DHT22;3087;48.392;10.836;2022-12-18T13:26:55;-2.50;99.90
6114;DHT22;3087;48.392;10.836;2022-12-18T13:29:48;-2.60;99.90
6114;DHT22;3087;48.392;10.836;2022-12-18T13:32:22;-2.70;99.90
6114;DHT22;3087;48.392;10.836;2022-12-18T13:37:53;-2.90;99.90
6114;DHT22;3087;48.392;10.836;2022-12-18T13:43:38;-3.00;99.90
6114;DHT22;3087;48.392;10.836;2022-12-18T13:46:29;-3.10;99.90
6114;DHT22;3087;48.392;10.836;2022-12-18T13:51:27;-3.10;99.90
6114;DHT22;3087;48.392;10.836;2022-12-18T13:54:01;-3.10;99.90
6114;DHT22;3087;48.392;10.836;2022-12-18T13:56:32;-3.20;99.90
6114;DHT22;3087;48.392;10.836;2022-12-18T13:59:16;-3.20;99.90
6114;DHT22;3087;48.392;10.836;2022-12-18T14:01:48;-3.10;99.90
6114;DHT22;3087;48.392;10.836;2022-12-18T14:04:35;-3.10;99.90
6114;DHT22;3087;48.392;10.836;2022-12-18T14:07:05;-3.20;99.90
6114;DHT22;3087;48.392;10.836;2022-12-18T14:09:45;-3.20;99.90
6114;DHT22;3087;48.392;10.836;2022-12-18T14:12:35;-3.20;99.90
6114;DHT22;3087;48.392;10.836;2022-12-18T14:15:43;-3.40;99.90
6114;DHT22;3087;48.392;10.836;2022-12-18T14:21:01;-3.40;99.90
6114;DHT22;3087;48.392;10.836;2022-12-18T14:23:38;-3.30;99.90
6114;DHT22;3087;48.392;10.836;2022-12-18T14:26:28;-3.30;99.90
6114;DHT22;3087;48.392;10.836;2022-12-18T14:29:23;-3.20;99.90
6114;DHT22;3087;48.392;10.836;2022-12-18T14:32:18;-3.20;99.90
6114;DHT22;3087;48.392;10.836;2022-12-18T14:34:46;-3.10;99.90
6114;DHT22;3087;48.392;10.836;2022-12-18T14:37:13;-3.10;99.90
6114;DHT22;3087;48.392;10.836;2022-12-18T14:39:39;-3.10;99.90
6114;DHT22;3087;48.392;10.836;2022-12-18T14:42:05;-3.10;99.90
6114;DHT22;3087;48.392;10.836;2022-12-18T14:44:31;-3.10;99.90
6114;DHT22;3087;48.392;10.836;2022-12-18T14:46:57;-3.10;99.90
6114;DHT22;3087;48.392;10.836;2022-12-18T14:51:56;-2.90;99.90
6114;DHT22;3087;48.392;10.836;2022-12-18T14:54:23;-3.00;99.90
6114;DHT22;3087;48.392;10.836;2022-12-18T14:59:21;-2.90;99.90
6114;DHT22;3087;48.392;10.836;2022-12-18T15:02:15;-2.80;99.90
6114;DHT22;3087;48.392;10.836;2022-12-18T15:04:44;-2.90;99.90
6114;DHT22;3087;48.392;10.836;2022-12-18T15:07:20;-2.90;99.90
6114;DHT22;3087;48.392;10.836;2022-12-18T15:12:34;-3.00;99.90
6114;DHT22;3087;48.392;10.836;2022-12-18T15:15:00;-3.10;99.90
6114;DHT22;3087;48.392;10.836;2022-12-18T15:17:26;-3.10;99.90
6114;DHT22;3087;48.392;10.836;2022-12-18T15:19:59;-3.20;99.90
6114;DHT22;3087;48.392;10.836;2022-12-18T15:22:30;-3.20;99.90
6114;DHT22;3087;48.392;10.836;2022-12-18T15:24:59;-3.10;99.90
6114;DHT22;3087;48.392;10.836;2022-12-18T15:27:35;-3.00;99.90
6114;DHT22;3087;48.392;10.836;2022-12-18T15:30:18;-3.10;99.90
6114;DHT22;3087;48.392;10.836;2022-12-18T15:32:44;-3.20;99.90
6114;DHT22;3087;48.392;10.836;2022-12-18T15:37:37;-3.60;99.90
6114;DHT22;3087;48.392;10.836;2022-12-18T15:40:03;-3.80;99.90
6114;DHT22;3087;48.392;10.836;2022-12-18T15:42:29;-3.80;99.90
6114;DHT22;3087;48.392;10.836;2022-12-18T15:45:14;-3.70;99.90
6114;DHT22;3087;48.392;10.836;2022-12-18T15:47:40;-3.70;99.90
6114;DHT22;3087;48.392;10.836;2022-12-18T15:50:07;-3.60;99.90
6114;DHT22;3087;48.392;10.836;2022-12-18T15:52:39;-3.60;99.90
6114;DHT22;3087;48.392;10.836;2022-12-18T15:55:22;-3.40;99.90
6114;DHT22;3087;48.392;10.836;2022-12-18T15:58:08;-3.30;99.90
6114;DHT22;3087;48.392;10.836;2022-12-18T16:00:35;-3.30;99.90
6114;DHT22;3087;48.392;10.836;2022-12-18T16:03:02;-3.40;99.90
6114;DHT22;3087;48.392;10.836;2022-12-18T16:05:28;-2.90;99.90
6114;DHT22;3087;48.392;10.836;2022-12-18T16:07:54;-3.50;99.90
6114;DHT22;3087;48.392;10.836;2022-12-18T16:10:19;-3.50;99.90
6114;DHT22;3087;48.392;10.836;2022-12-18T16:12:45;-3.60;99.90
6114;DHT22;3087;48.392;10.836;2022-12-18T16:15:15;-3.60;99.90
6114;DHT22;3087;48.392;10.836;2022-12-18T16:17:42;-3.70;99.90
6114;DHT22;3087;48.392;10.836;2022-12-18T16:20:21;-3.70;99.90
6114;DHT22;3087;48.392;10.836;2022-12-18T16:22:48;-3.60;99.90
6114;DHT22;3087;48.392;10.836;2022-12-18T16:25:22;-3.60;99.90
6114;DHT22;3087;48.392;10.836;2022-12-18T16:27:49;-3.60;99.90
6114;DHT22;3087;48.392;10.836;2022-12-18T16:30:20;-3.70;99.90
6114;DHT22;3087;48.392;10.836;2022-12-18T16:32:46;-3.70;99.90
6114;DHT22;3087;48.392;10.836;2022-12-18T16:35:14;-3.70;99.90
6114;DHT22;3087;48.392;10.836;2022-12-18T16:37:41;-3.70;99.90
6114;DHT22;3087;48.392;10.836;2022-12-18T16:40:08;-3.70;99.90
6114;DHT22;3087;48.392;10.836;2022-12-18T16:42:36;-3.70;99.90
6114;DHT22;3087;48.392;10.836;2022-12-18T16:45:02;-3.60;99.90
6114;DHT22;3087;48.392;10.836;2022-12-18T16:47:28;-3.50;99.90
6114;DHT22;3087;48.392;10.836;2022-12-18T16:49:53;-3.40;99.90
6114;DHT22;3087;48.392;10.836;2022-12-18T16:52:19;-3.30;99.90
6114;DHT22;3087;48.392;10.836;2022-12-18T16:54:45;-3.30;99.90
6114;DHT22;3087;48.392;10.836;2022-12-18T16:57:18;-3.20;99.90
6114;DHT22;3087;48.392;10.836;2022-12-18T16:59:45;-3.20;99.90
6114;DHT22;3087;48.392;10.836;2022-12-18T17:02:16;-3.20;99.90
6114;DHT22;3087;48.392;10.836;2022-12-18T17:04:43;-3.30;99.90
6114;DHT22;3087;48.392;10.836;2022-12-18T17:07:10;-3.30;99.90
6114;DHT22;3087;48.392;10.836;2022-12-18T17:09:36;-3.40;99.90
6114;DHT22;3087;48.392;10.836;2022-12-18T17:12:03;-3.40;99.90
6114;DHT22;3087;48.392;10.836;2022-12-18T17:14:28;-3.40;99.90
6114;DHT22;3087;48.392;10.836;2022-12-18T17:16:54;-3.40;99.90
6114;DHT22;3087;48.392;10.836;2022-12-18T17:19:22;-3.30;99.90
6114;DHT22;3087;48.392;10.836;2022-12-18T17:21:49;-3.30;99.90
6114;DHT22;3087;48.392;10.836;2022-12-18T17:24:15;-3.30;99.90
6114;DHT22;3087;48.392;10.836;2022-12-18T17:26:41;-3.30;99.90
6114;DHT22;3087;48.392;10.836;2022-12-18T17:29:07;-3.10;99.90
6114;DHT22;3087;48.392;10.836;2022-12-18T17:31:33;-3.00;99.90
6114;DHT22;3087;48.392;10.836;2022-12-18T17:34:01;-2.90;99.90
6114;DHT22;3087;48.392;10.836;2022-12-18T17:36:27;-2.90;99.90
6114;DHT22;3087;48.392;10.836;2022-12-18T17:38:57;-3.00;99.90
6114;DHT22;3087;48.392;10.836;2022-12-18T17:41:24;-3.00;99.90
6114;DHT22;3087;48.392;10.836;2022-12-18T17:43:52;-3.10;99.90
6114;DHT22;3087;48.392;10.836;2022-12-18T17:46:18;-3.20;99.90
6114;DHT22;3087;48.392;10.836;2022-12-18T17:48:44;-3.30;99.90